Newtown, Indiana
Current Conditions -  °F | °C
As of 5:54 PM on Saturday 25 Oct 2014 (Local Time) from KLAF Reporting Station
Clear Clear  
Wind Chill: 71°   Ceiling: Unl
Heat Index: 71°   Visibility: 10mi
Dew Point: 43°   Wind: 13mph
Humidity: 36%   Direction: 290°WNW
Pressure: 29.92"   Gusts: NA
Location:  40.2°N, 87.15°W
Report Text: KLAF 252154Z 29011KT 10SM CLR 22/06 A2992 RMK AO2 SLP130 T02170061
Loading
Personal Weather Stations






























Interactive Weather Map
Tropical Storm Tracking
New forecast layout! Learn more

10-Day Weather Forecast

Advertisements
Track Severe Weather on mobile